This is the latest recevied weather packets stored in our database for station/object KI6AOK. If no packets are shown the sender has not sent any weather packets the latest 10 day(s).
| Time | Temp. | Humidity | Pressure | Rain* | Wind** | Luminosity | Snow |
|---|---|---|---|---|---|---|---|
| 1777314148 | 17.22° C | 54% | 1016.6 hPa | 0 mm | - | 496 W/m² | - |
| 1777313847 | 16.67° C | 56% | 1016.5 hPa | 0 mm | - | 413 W/m² | - |
| 1777313543 | 16.67° C | 56% | 1016.5 hPa | 0 mm | - | 288 W/m² | - |
| 1777313241 | 16.11° C | 57% | 1016.5 hPa | 0 mm | - | 224 W/m² | - |
| 1777312937 | 16.67° C | 55% | 1016.7 hPa | 0 mm | - | 192 W/m² | - |
| 1777312633 | 16.67° C | 55% | 1016.5 hPa | 0 mm | - | 160 W/m² | - |
| 1777312331 | 16.67° C | 55% | 1016.4 hPa | 0 mm | - | 124 W/m² | - |
| 1777312028 | 16.67° C | 52% | 1016.4 hPa | 0 mm | - | 129 W/m² | - |
| 1777311724 | 17.22° C | 50% | 1016.5 hPa | 0 mm | - | 196 W/m² | - |
| 1777311422 | 17.78° C | 46% | 1016.6 hPa | 0 mm | - | 249 W/m² | - |
| 1777311119 | 17.78° C | 46% | 1016.4 hPa | 0 mm | - | 263 W/m² | - |
| 1777310818 | 18.33° C | 45% | 1016.5 hPa | 0 mm | - | 260 W/m² | - |
| 1777310514 | 18.33° C | 41% | 1016.5 hPa | 0 mm | - | 313 W/m² | - |
| 1777310211 | 18.33° C | 41% | 1016.5 hPa | 0 mm | - | 417 W/m² | - |
| 1777309909 | 18.33° C | 43% | 1016.5 hPa | 0 mm | - | 603 W/m² | - |
| 1777309607 | 18.33° C | 41% | 1016.4 hPa | 0 mm | - | 748 W/m² | - |
| 1777309304 | 17.78° C | 46% | 1016.3 hPa | 0 mm | - | 751 W/m² | - |
| 1777309002 | 17.22° C | 47% | 1016.3 hPa | 0 mm | - | 709 W/m² | - |
| 1777308697 | 16.67° C | 58% | 1016.4 hPa | 0 mm | - | 702 W/m² | - |
| 1777308393 | 16.11° C | 57% | 1016.4 hPa | 0 mm | - | 547 W/m² | - |
| 1777308088 | 15.56° C | 60% | 1016.2 hPa | 0 mm | - | 246 W/m² | - |
| 1777307787 | 15.56° C | 60% | 1016.2 hPa | 0 mm | - | 276 W/m² | - |
| 1777307483 | 15.56° C | 64% | 1016.3 hPa | 0 mm | - | 232 W/m² | - |
| 1777307180 | 15.56° C | 64% | 1016 hPa | 0 mm | - | 214 W/m² | - |
| 1777306878 | 15.56° C | 63% | 1016.2 hPa | 0 mm | - | 186 W/m² | - |
* Rain latest hour (hover to see other rain measurements)
** Current wind speed in m/s (hover to see current wind gust speed)